Portada
METAR-TAF:

METAR-TAF

Aeroports :

Abadan, Iran

latitud: 30-22N, longitud: 048-15E, altitud: 3 m

Observació

L'informe es va fer fa 55 minuts, a les 05:00 UTC
Vent 8 kt del Oest/Nord-Oest
Temperatura 36°C
Humitat 19%
Pressió 1004 hPa
Visibilitat 10 km o més
sense núvols per sota de 1500 mi sense presència de cumulonimbus.

METAR: OIAA 220500Z 29008KT CAVOK 36/09 Q1004

Hora: 09:25 (05:55 UTC)

Pronòstic

L'informe es va fer fa 6 hores i 45 minuts, a les 23:10 UTC
Pronòstic vàlid del 22 a les 00 UTC al 23 a les 06 UTC
Vent 10 kt del Oest/Nord-Oest
Visibilitat: 8000 m
Temporalment
l' 22 a les 10 UTC al 22 a les 16 UTC
Vent 18 kt del Oest/Nord-Oest

TAF: OIAA 212310Z 2200/2306 30010KT 8000 NSC TEMPO 2210/2216 30018KT

Observacions i pronòstics meteorològics de més de 4000 aeroports (METAR i TAF).

Les estacions disponibles són els punts grocs i vermells al mapa.

Posi el ratolí al punt desitjat per veure el nom de l'estació.

Feu clic per veure les observacions i els pronòstics meteorològics.

Per canviar el mapa: feu clic els botons verds amb una creu de color negre per apropar; al botó verd amb un guió per allunyar la imatge; o en les fletxes verdes per a mapes adjacents.


METAR-TAF: